createdAt,value
2022-08-20T00:01:16.679Z,20.08
2022-08-20T00:03:44.700Z,20.02
2022-08-20T00:06:20.777Z,19.98
2022-08-20T00:08:48.339Z,19.97
2022-08-20T00:11:19.625Z,19.95
2022-08-20T00:13:50.858Z,19.95
2022-08-20T00:16:19.484Z,19.95
2022-08-20T00:18:47.048Z,19.92
2022-08-20T00:21:19.174Z,19.86
2022-08-20T00:23:49.875Z,19.80
2022-08-20T00:26:18.177Z,19.76
2022-08-20T00:28:45.558Z,19.74
2022-08-20T00:31:18.176Z,19.70
2022-08-20T00:33:47.561Z,19.69
2022-08-20T00:36:15.825Z,19.64
2022-08-20T00:38:44.741Z,19.58
2022-08-20T00:41:21.298Z,19.55
2022-08-20T00:44:11.651Z,19.51
2022-08-20T00:46:39.392Z,19.46
2022-08-20T00:49:08.970Z,19.42
2022-08-20T00:51:46.718Z,19.40
2022-08-20T00:54:28.020Z,19.42
2022-08-20T00:56:58.981Z,19.41
2022-08-20T00:59:28.853Z,19.31
2022-08-20T01:01:57.800Z,19.30
2022-08-20T01:04:27.538Z,19.31
2022-08-20T01:06:55.269Z,19.24
2022-08-20T01:09:50.329Z,19.22
2022-08-20T01:12:10.757Z,19.14
2022-08-20T01:14:45.285Z,19.13
2022-08-20T01:17:20.399Z,19.06
2022-08-20T01:20:01.491Z,19.06
2022-08-20T01:23:29.987Z,19.01
2022-08-20T01:26:04.076Z,18.98
2022-08-20T01:28:40.763Z,18.94
2022-08-20T01:31:17.360Z,18.90
2022-08-20T01:33:47.873Z,18.92
2022-08-20T01:36:17.197Z,18.96
2022-08-20T01:38:54.128Z,18.93
2022-08-20T01:41:33.879Z,18.90
2022-08-20T01:44:01.002Z,18.86
2022-08-20T01:46:33.238Z,18.77
2022-08-20T01:49:15.651Z,18.79
2022-08-20T01:51:49.053Z,18.74
2022-08-20T01:54:16.733Z,18.77
2022-08-20T01:57:14.557Z,18.78
2022-08-20T01:59:42.332Z,18.74
2022-08-20T02:02:11.642Z,18.76
2022-08-20T02:04:40.356Z,18.74
2022-08-20T02:07:12.559Z,18.73
2022-08-20T02:09:40.412Z,18.70
2022-08-20T02:12:09.479Z,18.67
2022-08-20T02:14:45.249Z,18.70
2022-08-20T02:17:13.815Z,18.67
2022-08-20T02:19:46.030Z,18.68
2022-08-20T02:22:50.017Z,18.66
2022-08-20T02:25:18.684Z,18.70
2022-08-20T02:27:48.640Z,18.70
2022-08-20T02:30:27.820Z,18.68
2022-08-20T02:32:58.112Z,18.62
2022-08-20T02:35:26.366Z,18.61
2022-08-20T02:37:54.135Z,18.67
2022-08-20T02:40:30.849Z,18.67
2022-08-20T02:43:02.111Z,18.66
2022-08-20T02:45:31.840Z,18.64
2022-08-20T02:47:59.411Z,18.70
2022-08-20T02:50:27.191Z,18.72
2022-08-20T02:52:54.813Z,18.72
2022-08-20T02:55:27.995Z,18.74
2022-08-20T02:58:00.610Z,18.78
2022-08-20T03:00:37.761Z,18.77
2022-08-20T03:03:06.972Z,18.83
2022-08-20T03:05:34.246Z,18.84
2022-08-20T03:08:01.487Z,18.85
2022-08-20T03:10:33.667Z,18.90
2022-08-20T03:13:02.788Z,18.94
2022-08-20T03:15:31.748Z,18.94
2022-08-20T03:17:58.780Z,19.05
2022-08-20T03:20:27.290Z,19.05
2022-08-20T03:22:54.281Z,19.01
2022-08-20T03:25:21.703Z,19.04
2022-08-20T03:27:53.982Z,19.05
2022-08-20T03:30:23.918Z,19.07
2022-08-20T03:32:51.042Z,19.05
2022-08-20T03:35:19.704Z,18.99
2022-08-20T03:37:48.224Z,19.03
2022-08-20T03:40:28.573Z,19.06
2022-08-20T03:42:56.142Z,19.07
2022-08-20T03:45:24.796Z,19.08
2022-08-20T03:47:52.706Z,19.10
2022-08-20T03:50:23.863Z,19.09
2022-08-20T03:52:52.698Z,19.05
2022-08-20T03:55:21.703Z,19.12
2022-08-20T03:57:52.982Z,19.05
2022-08-20T04:00:24.934Z,19.14
2022-08-20T04:02:51.942Z,19.06
2022-08-20T04:05:19.097Z,19.14
2022-08-20T04:07:46.104Z,19.19
2022-08-20T04:10:14.054Z,19.31
2022-08-20T04:12:42.042Z,19.45
2022-08-20T04:15:21.457Z,19.53
2022-08-20T04:17:50.468Z,19.72
2022-08-20T04:20:23.249Z,19.78
2022-08-20T04:22:59.446Z,19.88
2022-08-20T04:25:35.851Z,19.93
2022-08-20T04:28:05.880Z,20.09
2022-08-20T04:30:33.494Z,20.27
2022-08-20T04:33:00.973Z,20.23
2022-08-20T04:35:29.286Z,20.31
2022-08-20T04:38:11.688Z,20.60
2022-08-20T04:40:54.215Z,20.88
2022-08-20T04:43:23.400Z,21.02
2022-08-20T04:45:52.109Z,21.30
2022-08-20T04:48:20.761Z,21.98
2022-08-20T04:50:47.928Z,23.11
2022-08-20T04:53:20.657Z,24.10
2022-08-20T04:55:51.083Z,25.08
2022-08-20T04:58:27.621Z,25.60
2022-08-20T05:01:01.309Z,26.46
2022-08-20T05:03:29.153Z,26.97
2022-08-20T05:05:57.077Z,26.83
2022-08-20T05:08:26.138Z,27.02
2022-08-20T05:11:06.878Z,26.44
2022-08-20T05:13:42.971Z,26.01
2022-08-20T05:16:10.210Z,26.11
2022-08-20T05:18:37.366Z,25.80
2022-08-20T05:21:06.249Z,25.89
2022-08-20T05:23:35.950Z,25.55
2022-08-20T05:26:09.263Z,25.09
2022-08-20T05:28:57.461Z,24.71
2022-08-20T05:31:31.436Z,24.17
2022-08-20T05:34:12.602Z,24.28
2022-08-20T05:36:51.452Z,24.53
2022-08-20T05:39:23.004Z,24.54
2022-08-20T05:41:51.013Z,24.16
2022-08-20T05:44:19.208Z,23.89
2022-08-20T05:46:48.204Z,23.79
2022-08-20T05:49:19.643Z,23.49
2022-08-20T05:51:48.150Z,23.45
2022-08-20T05:54:16.474Z,23.00
2022-08-20T05:56:47.466Z,22.92
2022-08-20T05:59:14.425Z,22.76
2022-08-20T06:01:43.133Z,22.57
2022-08-20T06:04:31.907Z,21.97
2022-08-20T06:07:05.354Z,21.75
2022-08-20T06:09:33.263Z,21.97
2022-08-20T06:12:02.426Z,22.23
2022-08-20T06:14:29.448Z,22.19
2022-08-20T06:17:02.938Z,22.18
2022-08-20T06:19:32.386Z,22.42
2022-08-20T06:21:59.990Z,22.54
2022-08-20T06:24:27.166Z,22.46
2022-08-20T06:26:58.922Z,22.26
2022-08-20T06:29:26.771Z,22.25
2022-08-20T06:31:54.357Z,22.59
2022-08-20T06:34:21.477Z,22.57
2022-08-20T06:36:48.633Z,22.96
2022-08-20T06:39:16.176Z,23.30
2022-08-20T06:41:43.179Z,23.74
2022-08-20T06:44:10.409Z,23.84
2022-08-20T06:46:38.593Z,24.12
2022-08-20T06:49:07.091Z,25.49
2022-08-20T06:51:34.438Z,25.47
2022-08-20T06:54:01.439Z,25.31
2022-08-20T06:56:28.437Z,26.58
2022-08-20T06:58:55.424Z,26.80
2022-08-20T07:01:23.490Z,26.31
2022-08-20T07:03:55.431Z,25.73
2022-08-20T07:06:25.944Z,25.28
2022-08-20T07:08:54.153Z,25.13
2022-08-20T07:11:27.057Z,24.90
2022-08-20T07:13:56.911Z,24.95
2022-08-20T07:16:24.393Z,24.91
2022-08-20T07:18:51.517Z,24.52
2022-08-20T07:21:18.543Z,24.62
2022-08-20T07:23:45.608Z,24.59
2022-08-20T07:26:13.431Z,24.54
2022-08-20T07:28:40.794Z,24.46
2022-08-20T07:31:26.914Z,24.45
2022-08-20T07:33:54.213Z,24.03
2022-08-20T07:36:21.712Z,23.61
2022-08-20T07:38:51.089Z,23.76
2022-08-20T07:41:19.328Z,23.83
2022-08-20T07:43:47.751Z,23.54
2022-08-20T07:46:20.557Z,23.51
2022-08-20T07:48:50.529Z,23.50
2022-08-20T07:51:19.840Z,23.40
2022-08-20T07:53:48.043Z,23.25
2022-08-20T07:56:21.639Z,23.21
2022-08-20T07:58:52.373Z,23.29
2022-08-20T08:01:26.431Z,23.69
2022-08-20T08:03:53.898Z,23.98
2022-08-20T08:06:29.813Z,23.91
2022-08-20T08:09:14.420Z,23.86
2022-08-20T08:11:47.560Z,24.10
2022-08-20T08:14:19.703Z,23.94
2022-08-20T08:16:46.997Z,23.90
2022-08-20T08:19:15.914Z,23.90
2022-08-20T08:21:44.396Z,23.83
2022-08-20T08:24:15.483Z,23.70
2022-08-20T08:26:46.502Z,23.44
2022-08-20T08:29:13.607Z,23.42
2022-08-20T08:31:41.417Z,23.36
2022-08-20T08:34:09.337Z,23.28
2022-08-20T08:36:36.353Z,23.24
2022-08-20T08:39:03.437Z,23.12
2022-08-20T08:41:37.062Z,22.94
2022-08-20T08:44:13.023Z,22.82
2022-08-20T08:46:41.953Z,22.72
2022-08-20T08:49:15.742Z,22.62
2022-08-20T08:51:48.162Z,22.48
2022-08-20T08:54:19.318Z,22.68
2022-08-20T08:56:49.610Z,22.56
2022-08-20T08:59:18.788Z,22.66
2022-08-20T09:01:55.096Z,22.62
2022-08-20T09:04:38.113Z,22.70
2022-08-20T09:07:11.110Z,22.66
2022-08-20T09:09:39.746Z,22.67
2022-08-20T09:12:20.178Z,22.69
2022-08-20T09:14:49.545Z,22.43
2022-08-20T09:17:19.199Z,22.47
2022-08-20T09:19:46.292Z,22.27
2022-08-20T09:22:20.106Z,22.22
2022-08-20T09:24:47.137Z,22.25
2022-08-20T09:27:14.593Z,22.18
2022-08-20T09:29:41.693Z,21.89
2022-08-20T09:32:20.885Z,21.90
2022-08-20T09:34:57.017Z,21.88
2022-08-20T09:37:26.368Z,21.78
2022-08-20T09:39:53.767Z,21.55
2022-08-20T09:42:24.333Z,21.56
2022-08-20T09:44:52.166Z,21.40
2022-08-20T09:47:19.847Z,21.37
2022-08-20T09:49:47.338Z,21.32
2022-08-20T09:52:23.537Z,21.21
2022-08-20T09:54:51.613Z,21.12
2022-08-20T09:57:19.257Z,21.26
2022-08-20T09:59:53.544Z,21.16
2022-08-20T10:02:20.956Z,21.20
2022-08-20T10:04:47.943Z,21.22
2022-08-20T10:07:16.036Z,21.15
2022-08-20T10:09:43.431Z,21.12
2022-08-20T10:12:10.609Z,20.96
2022-08-20T10:14:37.652Z,21.03
2022-08-20T10:17:04.943Z,20.95
2022-08-20T10:19:33.070Z,20.86
2022-08-20T10:22:00.774Z,20.76
2022-08-20T10:24:28.952Z,20.65
2022-08-20T10:26:58.848Z,20.70
2022-08-20T10:29:27.446Z,20.58
2022-08-20T10:31:55.878Z,20.59
2022-08-20T10:34:26.081Z,20.66
2022-08-20T10:36:53.132Z,20.63
2022-08-20T10:39:20.109Z,20.74
2022-08-20T10:41:47.185Z,20.82
2022-08-20T10:44:14.261Z,20.95
2022-08-20T10:46:41.337Z,20.85
2022-08-20T10:49:08.373Z,20.88
2022-08-20T10:51:35.322Z,20.93
2022-08-20T10:54:03.058Z,20.77
2022-08-20T10:56:33.368Z,20.86
2022-08-20T10:59:00.295Z,20.87
2022-08-20T11:01:31.444Z,20.85
2022-08-20T11:03:58.699Z,20.79
2022-08-20T11:06:25.715Z,20.81
2022-08-20T11:08:52.919Z,20.67
2022-08-20T11:11:19.895Z,20.82
2022-08-20T11:13:46.904Z,20.89
2022-08-20T11:16:14.623Z,20.99
2022-08-20T11:18:46.321Z,20.99
2022-08-20T11:21:15.261Z,21.05
2022-08-20T11:23:42.212Z,20.98
2022-08-20T11:26:09.743Z,21.21
2022-08-20T11:28:36.716Z,21.42
2022-08-20T11:31:03.814Z,21.52
2022-08-20T11:33:30.807Z,21.67
2022-08-20T11:35:58.237Z,21.81
2022-08-20T11:38:25.417Z,21.88
2022-08-20T11:40:52.427Z,21.99
2022-08-20T11:43:19.577Z,22.11
2022-08-20T11:45:50.037Z,22.08
2022-08-20T11:48:18.167Z,22.11
2022-08-20T11:50:46.470Z,22.20
2022-08-20T11:53:14.318Z,22.37
2022-08-20T11:55:42.742Z,22.46
2022-08-20T11:58:10.184Z,22.29
2022-08-20T12:00:37.269Z,22.30
2022-08-20T12:03:08.953Z,22.35
2022-08-20T12:05:42.453Z,22.33
2022-08-20T12:08:10.653Z,22.38
2022-08-20T12:10:56.815Z,22.48
2022-08-20T12:13:30.765Z,22.37
2022-08-20T12:16:12.031Z,22.42
2022-08-20T12:18:39.074Z,22.46
2022-08-20T12:21:06.249Z,22.58
2022-08-20T12:23:33.728Z,22.70
2022-08-20T12:26:03.466Z,22.64
2022-08-20T12:28:32.106Z,22.71
2022-08-20T12:30:59.288Z,22.83
2022-08-20T12:33:26.626Z,22.93
2022-08-20T12:35:53.811Z,23.03
2022-08-20T12:38:21.120Z,22.94
2022-08-20T12:40:48.268Z,23.20
2022-08-20T12:43:15.265Z,23.04
2022-08-20T12:45:42.447Z,23.16
2022-08-20T12:48:12.731Z,23.24
2022-08-20T12:50:43.354Z,23.22
2022-08-20T12:53:10.522Z,23.12
2022-08-20T12:55:37.702Z,22.91
2022-08-20T12:58:09.825Z,22.96
2022-08-20T13:00:47.457Z,22.93
2022-08-20T13:03:19.975Z,22.87
2022-08-20T13:05:47.773Z,22.88
2022-08-20T13:08:14.761Z,22.94
2022-08-20T13:10:45.814Z,22.91
2022-08-20T13:13:15.557Z,22.82
2022-08-20T13:15:47.049Z,22.87
2022-08-20T13:18:14.100Z,22.88
2022-08-20T13:20:41.247Z,22.80
2022-08-20T13:23:08.306Z,22.89
2022-08-20T13:25:35.362Z,22.90
2022-08-20T13:28:04.723Z,23.04
2022-08-20T13:30:34.122Z,23.02
2022-08-20T13:33:01.829Z,23.08
2022-08-20T13:35:28.968Z,23.11
2022-08-20T13:37:58.306Z,23.19
2022-08-20T13:40:28.372Z,23.06
2022-08-20T13:42:58.054Z,23.16
2022-08-20T13:45:25.221Z,23.20
2022-08-20T13:47:54.821Z,23.21
2022-08-20T13:50:24.286Z,23.11
2022-08-20T13:52:51.970Z,23.08
2022-08-20T13:55:21.834Z,23.16
2022-08-20T13:57:50.084Z,23.02
2022-08-20T14:00:31.202Z,22.82
2022-08-20T14:03:04.064Z,22.96
2022-08-20T14:05:32.173Z,22.95
2022-08-20T14:08:18.030Z,22.90
2022-08-20T14:10:51.584Z,22.91
2022-08-20T14:13:21.517Z,22.79
2022-08-20T14:15:48.934Z,22.71
2022-08-20T14:18:16.550Z,22.54
2022-08-20T14:20:45.660Z,22.58
2022-08-20T14:23:13.446Z,22.63
2022-08-20T14:25:40.611Z,22.71
2022-08-20T14:28:14.164Z,22.67
2022-08-20T14:30:42.750Z,22.65
2022-08-20T14:33:10.023Z,22.67
2022-08-20T14:35:37.544Z,22.66
2022-08-20T14:38:05.257Z,22.58
2022-08-20T14:40:33.250Z,22.62
2022-08-20T14:43:00.386Z,22.61
2022-08-20T14:45:28.673Z,22.61
2022-08-20T14:47:57.847Z,22.61
2022-08-20T14:50:31.882Z,22.61
2022-08-20T14:52:59.938Z,22.65
2022-08-20T14:55:30.131Z,22.65
2022-08-20T14:57:58.078Z,22.68
2022-08-20T15:00:28.152Z,22.69
2022-08-20T15:02:55.581Z,22.66
2022-08-20T15:05:22.883Z,22.65
2022-08-20T15:07:51.961Z,22.71
2022-08-20T15:10:28.280Z,22.70
2022-08-20T15:12:55.650Z,22.64
2022-08-20T15:15:22.957Z,22.69
2022-08-20T15:17:52.513Z,22.67
2022-08-20T15:20:23.740Z,22.67
2022-08-20T15:22:51.297Z,22.74
2022-08-20T15:25:22.149Z,22.73
2022-08-20T15:27:49.322Z,22.72
2022-08-20T15:30:21.374Z,22.69
2022-08-20T15:32:54.605Z,22.72
2022-08-20T15:35:25.327Z,22.67
2022-08-20T15:37:54.587Z,22.67
2022-08-20T15:40:28.229Z,22.68
2022-08-20T15:43:00.382Z,22.65
2022-08-20T15:45:27.886Z,22.66
2022-08-20T15:48:02.012Z,22.65
2022-08-20T15:50:47.567Z,22.57
2022-08-20T15:53:42.785Z,22.62
2022-08-20T15:56:47.117Z,22.58
2022-08-20T15:59:29.462Z,22.57
2022-08-20T16:02:03.910Z,22.52
2022-08-20T16:05:04.283Z,22.46
2022-08-20T16:08:18.914Z,22.46
2022-08-20T16:10:51.539Z,22.45
2022-08-20T16:13:40.648Z,22.40
2022-08-20T16:16:16.022Z,22.43
2022-08-20T16:18:46.803Z,22.33
2022-08-20T16:21:17.072Z,22.23
2022-08-20T16:23:44.852Z,22.31
2022-08-20T16:26:37.993Z,22.28
2022-08-20T16:29:24.870Z,22.27
2022-08-20T16:32:24.442Z,22.17
2022-08-20T16:35:06.315Z,22.14
2022-08-20T16:37:45.153Z,22.20
2022-08-20T16:40:18.109Z,22.18
2022-08-20T16:42:47.941Z,22.18
2022-08-20T16:45:27.595Z,22.14
2022-08-20T16:48:01.006Z,22.12
2022-08-20T16:50:50.020Z,22.13
2022-08-20T16:53:20.477Z,22.05
2022-08-20T16:55:48.006Z,22.01
2022-08-20T16:58:15.328Z,21.93
2022-08-20T17:00:45.527Z,21.93
2022-08-20T17:03:33.459Z,21.93
2022-08-20T17:06:25.891Z,21.91
2022-08-20T17:09:37.661Z,21.87
2022-08-20T17:12:16.784Z,21.78
2022-08-20T17:14:50.400Z,21.80
2022-08-20T17:17:28.456Z,21.78
2022-08-20T17:20:19.948Z,21.78
2022-08-20T17:23:06.196Z,21.76
2022-08-20T17:25:38.229Z,21.74
2022-08-20T17:28:17.231Z,21.68
2022-08-20T17:30:45.929Z,21.70
2022-08-20T17:33:29.700Z,21.67
2022-08-20T17:36:04.233Z,21.73
2022-08-20T17:38:45.537Z,21.77
2022-08-20T17:41:27.397Z,21.76
2022-08-20T17:44:02.609Z,21.80
2022-08-20T17:46:33.722Z,21.78
2022-08-20T17:49:05.678Z,21.75
2022-08-20T17:51:38.190Z,21.78
2022-08-20T17:54:22.412Z,21.78
2022-08-20T17:56:55.853Z,21.79
2022-08-20T17:59:47.693Z,21.75
2022-08-20T18:02:20.343Z,21.72
2022-08-20T18:04:49.125Z,21.74
2022-08-20T18:07:31.533Z,21.72
2022-08-20T18:10:23.929Z,21.68
2022-08-20T18:13:01.739Z,21.61
2022-08-20T18:15:38.671Z,21.66
2022-08-20T18:18:27.352Z,21.67
2022-08-20T18:21:06.393Z,21.64
2022-08-20T18:23:41.444Z,21.55
2022-08-20T18:26:29.739Z,21.53
2022-08-20T18:29:07.762Z,21.46
2022-08-20T18:31:48.114Z,21.40
2022-08-20T18:34:34.632Z,21.45
2022-08-20T18:37:06.756Z,21.45
2022-08-20T18:39:40.763Z,21.42
2022-08-20T18:42:41.344Z,21.41
2022-08-20T18:45:08.907Z,21.33
2022-08-20T18:47:35.792Z,21.33
2022-08-20T18:50:16.644Z,21.31
2022-08-20T18:53:06.263Z,21.27
2022-08-20T18:55:46.194Z,21.21
2022-08-20T18:58:34.849Z,21.16
2022-08-20T19:01:07.826Z,21.18
2022-08-20T19:03:35.900Z,21.17
2022-08-20T19:06:08.732Z,21.15
2022-08-20T19:08:43.557Z,21.06
2022-08-20T19:11:56.897Z,21.01
2022-08-20T19:15:07.297Z,20.96
2022-08-20T19:18:01.013Z,20.91
2022-08-20T19:20:31.303Z,20.86
2022-08-20T19:23:21.042Z,20.82
2022-08-20T19:25:54.029Z,20.81
2022-08-20T19:28:39.692Z,20.80
2022-08-20T19:31:25.385Z,20.74
2022-08-20T19:34:20.024Z,20.72
2022-08-20T19:37:27.895Z,20.68
2022-08-20T19:39:57.871Z,20.66
2022-08-20T19:42:24.872Z,20.61
2022-08-20T19:44:55.259Z,20.56
2022-08-20T19:47:29.197Z,20.51
2022-08-20T19:50:02.159Z,20.47
2022-08-20T19:52:36.334Z,20.48
2022-08-20T19:55:04.387Z,20.45
2022-08-20T19:57:31.887Z,20.42
2022-08-20T20:00:00.972Z,20.45
2022-08-20T20:02:31.452Z,20.42
2022-08-20T20:04:58.473Z,20.39
2022-08-20T20:07:28.930Z,20.35
2022-08-20T20:09:58.449Z,20.32
2022-08-20T20:12:26.361Z,20.24
2022-08-20T20:14:55.018Z,20.20
2022-08-20T20:17:26.578Z,20.18
2022-08-20T20:19:59.207Z,20.21
2022-08-20T20:22:47.082Z,20.15
2022-08-20T20:25:17.122Z,20.13
2022-08-20T20:27:58.517Z,20.13
2022-08-20T20:30:33.583Z,20.10
2022-08-20T20:33:09.741Z,20.08
2022-08-20T20:35:36.723Z,19.98
2022-08-20T20:38:14.883Z,19.99
2022-08-20T20:40:52.186Z,19.97
2022-08-20T20:43:30.133Z,20.00
2022-08-20T20:46:20.460Z,19.99
2022-08-20T20:48:52.856Z,20.00
2022-08-20T20:51:33.862Z,20.02
2022-08-20T20:54:07.697Z,20.03
2022-08-20T20:56:43.535Z,20.01
2022-08-20T20:59:11.512Z,20.00
2022-08-20T21:01:49.277Z,20.00
2022-08-20T21:04:22.301Z,20.03
2022-08-20T21:06:52.223Z,20.01
2022-08-20T21:09:21.264Z,20.01
2022-08-20T21:11:48.976Z,20.06
2022-08-20T21:14:16.993Z,19.99
2022-08-20T21:16:46.334Z,20.03
2022-08-20T21:19:14.113Z,20.02
2022-08-20T21:21:42.111Z,20.03
2022-08-20T21:24:09.515Z,20.05
2022-08-20T21:26:37.762Z,20.07
2022-08-20T21:29:06.713Z,20.10
2022-08-20T21:31:40.435Z,20.08
2022-08-20T21:34:12.930Z,20.06
2022-08-20T21:36:40.215Z,20.04
2022-08-20T21:39:07.480Z,20.04
2022-08-20T21:41:34.844Z,20.04
2022-08-20T21:44:09.992Z,20.08
2022-08-20T21:46:37.100Z,20.08
2022-08-20T21:49:04.671Z,20.02
2022-08-20T21:51:32.536Z,20.00
2022-08-20T21:54:00.159Z,20.03
2022-08-20T21:56:27.233Z,19.99
2022-08-20T21:58:55.265Z,20.00
2022-08-20T22:01:22.598Z,20.05
2022-08-20T22:03:51.899Z,20.04
2022-08-20T22:06:20.221Z,20.08
2022-08-20T22:08:47.508Z,20.07
2022-08-20T22:11:14.688Z,20.09
2022-08-20T22:13:43.292Z,20.03
2022-08-20T22:16:13.080Z,20.05
2022-08-20T22:18:40.820Z,20.08
2022-08-20T22:21:10.855Z,20.06
2022-08-20T22:23:40.202Z,20.03
2022-08-20T22:26:08.441Z,20.05
2022-08-20T22:28:35.931Z,20.06
2022-08-20T22:31:04.103Z,20.04
2022-08-20T22:33:31.794Z,19.97
2022-08-20T22:36:00.004Z,20.01
2022-08-20T22:38:27.284Z,19.97
2022-08-20T22:40:57.281Z,19.98
2022-08-20T22:43:24.475Z,19.95
2022-08-20T22:45:55.797Z,19.93
2022-08-20T22:48:23.016Z,19.91
2022-08-20T22:50:50.717Z,19.89
2022-08-20T22:53:19.526Z,19.86
2022-08-20T22:55:47.017Z,19.83
2022-08-20T22:58:14.876Z,19.80
2022-08-20T23:00:46.108Z,19.84
2022-08-20T23:03:15.665Z,19.78
2022-08-20T23:05:47.670Z,19.81
2022-08-20T23:08:15.239Z,19.81
2022-08-20T23:10:42.758Z,19.78
2022-08-20T23:13:09.992Z,19.76
2022-08-20T23:15:41.450Z,19.73
2022-08-20T23:18:15.856Z,19.67
2022-08-20T23:20:48.950Z,19.66
2022-08-20T23:23:16.355Z,19.65
2022-08-20T23:25:43.383Z,19.60
2022-08-20T23:28:10.902Z,19.55
2022-08-20T23:30:37.922Z,19.55
2022-08-20T23:33:04.923Z,19.55
2022-08-20T23:35:33.263Z,19.55
2022-08-20T23:38:00.509Z,19.52
2022-08-20T23:40:28.953Z,19.50
2022-08-20T23:42:57.566Z,19.41
2022-08-20T23:45:25.842Z,19.39
2022-08-20T23:47:53.248Z,19.40
2022-08-20T23:50:25.375Z,19.35
2022-08-20T23:52:54.101Z,19.33
2022-08-20T23:55:22.843Z,19.33
2022-08-20T23:57:50.889Z,19.30
